Time;durP1;ratioP1;P1;durP2;ratioP2;P2;SDS_P1;SDS_P2;PMS_P1;PMS_P2;Temp;Humidity;BMP_temperature;BMP_pressure;BME280_temperature;BME280_humidity;BME280_pressure;Samples;Min_cycle;Max_cycle;Signal;HPM_P1;HPM_P2
2023/03/01 00:01:19;;;;;;;5.25;2.90;;;20.80;45.80;;;;;;5038587;28;20029;-68
2023/03/01 00:03:46;;;;;;;5.70;3.25;;;20.70;45.70;;;;;;5040818;28;20079;-68
2023/03/01 00:06:12;;;;;;;4.57;2.85;;;20.70;45.70;;;;;;5044779;28;20029;-68
2023/03/01 00:08:38;;;;;;;4.68;2.70;;;20.70;45.70;;;;;;5040824;28;20034;-68
2023/03/01 00:11:31;;;;;;;4.70;2.47;;;20.70;45.70;;;;;;5037936;28;20485;-68
2023/03/01 00:13:58;;;;;;;4.95;3.00;;;20.70;45.70;;;;;;5039288;28;20024;-68
2023/03/01 00:16:30;;;;;;;4.63;2.67;;;20.70;45.70;;;;;;5035095;28;20021;-68
2023/03/01 00:18:57;;;;;;;4.88;2.50;;;20.70;45.70;;;;;;5042953;28;20064;-68
2023/03/01 00:21:23;;;;;;;4.95;2.60;;;20.70;45.70;;;;;;5039632;28;20037;-68
2023/03/01 00:23:49;;;;;;;5.30;2.75;;;20.70;45.70;;;;;;5041904;28;20561;-68
2023/03/01 00:26:17;;;;;;;4.50;2.50;;;20.60;45.70;;;;;;5040295;28;20033;-68
2023/03/01 00:28:43;;;;;;;4.38;2.65;;;20.60;45.70;;;;;;5057889;28;20391;-68
2023/03/01 00:31:15;;;;;;;4.18;2.47;;;20.60;45.70;;;;;;5039479;28;20028;-68
2023/03/01 00:33:42;;;;;;;4.00;2.40;;;20.60;45.70;;;;;;5038957;28;20029;-69
2023/03/01 00:36:09;;;;;;;4.13;2.28;;;20.60;45.70;;;;;;5037151;28;20052;-68
2023/03/01 00:38:36;;;;;;;4.13;2.35;;;20.60;45.70;;;;;;5036803;28;20136;-68
2023/03/01 00:41:07;;;;;;;4.70;2.58;;;20.60;46.20;;;;;;5036172;28;20378;-69
2023/03/01 00:43:36;;;;;;;4.95;2.50;;;20.60;45.70;;;;;;5037562;28;20041;-68
2023/03/01 00:46:07;;;;;;;3.88;2.30;;;20.60;45.70;;;;;;5038041;28;20025;-68
2023/03/01 00:48:33;;;;;;;4.18;2.20;;;20.50;45.70;;;;;;5038356;28;20393;-68
2023/03/01 00:51:05;;;;;;;4.45;2.40;;;20.60;45.70;;;;;;5039792;28;20479;-68
2023/03/01 00:53:31;;;;;;;3.42;2.00;;;20.50;45.70;;;;;;5037218;28;20074;-68
2023/03/01 00:55:58;;;;;;;4.90;2.30;;;20.50;45.70;;;;;;5038423;28;20024;-68
2023/03/01 00:58:24;;;;;;;4.05;2.20;;;20.50;45.70;;;;;;5040752;28;20427;-68
2023/03/01 01:00:50;;;;;;;4.05;2.40;;;20.50;45.70;;;;;;5038347;28;20481;-69
2023/03/01 01:03:15;;;;;;;4.32;2.38;;;20.50;45.70;;;;;;5043890;28;20035;-69
2023/03/01 01:05:41;;;;;;;3.88;2.20;;;20.50;45.70;;;;;;5036452;28;20031;-69
2023/03/01 01:08:07;;;;;;;4.47;2.30;;;20.50;45.70;;;;;;5038765;28;20477;-69
2023/03/01 01:10:34;;;;;;;4.45;2.30;;;20.50;45.70;;;;;;5036970;28;20389;-68
2023/03/01 01:13:00;;;;;;;3.63;2.40;;;20.50;45.70;;;;;;5037085;28;20497;-68
2023/03/01 01:15:26;;;;;;;3.67;2.30;;;20.40;45.70;;;;;;5039702;28;20063;-68
2023/03/01 01:17:52;;;;;;;3.80;2.20;;;20.40;45.70;;;;;;5038609;28;20037;-68
2023/03/01 01:20:17;;;;;;;4.20;2.10;;;20.40;45.70;;;;;;5037386;28;20083;-68
2023/03/01 01:22:43;;;;;;;3.78;2.20;;;20.40;46.20;;;;;;5038004;28;20231;-69
2023/03/01 01:25:09;;;;;;;3.78;2.17;;;20.40;45.70;;;;;;5036505;28;20484;-69
2023/03/01 01:27:34;;;;;;;4.22;2.05;;;20.40;45.70;;;;;;5037026;28;20484;-69
2023/03/01 01:30:00;;;;;;;4.03;2.03;;;20.40;45.70;;;;;;5036307;28;20028;-68
2023/03/01 01:32:26;;;;;;;3.50;2.20;;;20.40;45.70;;;;;;5039355;28;20028;-69
2023/03/01 01:34:51;;;;;;;3.65;1.90;;;20.40;45.70;;;;;;5040852;28;20107;-69
2023/03/01 01:37:17;;;;;;;3.90;1.90;;;20.40;45.80;;;;;;5040631;28;20489;-69
2023/03/01 01:39:42;;;;;;;4.25;2.15;;;20.40;45.80;;;;;;5041060;28;20445;-69
2023/03/01 01:42:27;;;;;;;3.35;2.10;;;20.40;45.80;;;;;;5043492;28;20073;-69
2023/03/01 01:45:23;;;;;;;3.95;1.98;;;20.40;45.70;;;;;;5043255;28;20033;-69
2023/03/01 01:47:50;;;;;;;3.33;1.90;;;20.30;45.70;;;;;;5041706;28;20029;-69
2023/03/01 01:50:19;;;;;;;3.05;1.67;;;20.30;45.70;;;;;;5044716;28;20029;-69
2023/03/01 01:52:46;;;;;;;3.03;1.90;;;20.30;45.70;;;;;;5049036;28;20030;-69
2023/03/01 01:55:20;;;;;;;3.22;1.80;;;20.30;45.70;;;;;;5042755;28;20030;-69
2023/03/01 01:57:51;;;;;;;3.13;1.95;;;20.30;45.80;;;;;;5041060;28;20108;-69
2023/03/01 02:00:20;;;;;;;3.40;1.60;;;20.30;45.80;;;;;;5042195;28;20072;-69
2023/03/01 02:02:51;;;;;;;2.95;1.73;;;20.30;45.80;;;;;;5025344;28;20033;-69
2023/03/01 02:05:35;;;;;;;3.25;1.88;;;20.30;45.70;;;;;;5043213;28;20029;-69
2023/03/01 02:08:01;;;;;;;2.70;1.75;;;20.30;45.80;;;;;;5039343;28;20125;-69
2023/03/01 02:10:27;;;;;;;3.05;1.83;;;20.20;45.70;;;;;;5043427;28;20136;-69
2023/03/01 02:12:55;;;;;;;3.33;1.95;;;20.20;45.80;;;;;;5043152;28;20022;-69
2023/03/01 02:15:22;;;;;;;2.90;1.70;;;20.20;46.30;;;;;;5041988;28;20487;-69
2023/03/01 02:17:48;;;;;;;2.97;1.88;;;20.20;45.80;;;;;;5040085;28;20024;-69
2023/03/01 02:20:34;;;;;;;3.10;1.73;;;20.20;45.80;;;;;;5040735;28;20029;-69
2023/03/01 02:23:00;;;;;;;3.40;1.80;;;20.20;45.80;;;;;;5041063;28;20041;-69
2023/03/01 02:26:00;;;;;;;3.58;1.80;;;20.20;45.80;;;;;;5042092;28;20175;-69
2023/03/01 02:28:35;;;;;;;2.58;1.80;;;20.20;45.80;;;;;;5040375;28;20029;-69
2023/03/01 02:33:50;;;;;;;3.03;1.77;;;20.20;45.90;;;;;;5040847;28;20032;-69
2023/03/01 02:36:19;;;;;;;2.72;1.80;;;20.10;45.80;;;;;;5041663;28;20028;-69
2023/03/01 02:38:47;;;;;;;3.05;1.58;;;20.10;45.80;;;;;;5037831;28;20041;-69
2023/03/01 02:41:17;;;;;;;2.63;1.70;;;20.10;45.80;;;;;;5037364;28;20024;-69
2023/03/01 02:43:43;;;;;;;3.20;1.90;;;20.10;45.80;;;;;;5040203;28;20483;-69
2023/03/01 02:46:16;;;;;;;3.10;1.88;;;20.10;45.80;;;;;;5042071;28;20029;-69
2023/03/01 02:49:21;;;;;;;3.63;1.90;;;20.10;45.90;;;;;;5038055;28;20109;-69
2023/03/01 02:51:52;;;;;;;2.75;1.80;;;20.10;45.80;;;;;;5032259;28;20039;-69
2023/03/01 02:54:34;;;;;;;3.55;1.63;;;20.10;45.90;;;;;;5041012;28;20033;-69
2023/03/01 02:57:00;;;;;;;3.08;1.60;;;20.10;45.90;;;;;;5042379;28;20108;-69
2023/03/01 02:59:31;;;;;;;2.90;1.88;;;20.10;45.90;;;;;;5041705;28;20083;-69
2023/03/01 03:01:56;;;;;;;2.50;1.63;;;20.00;45.80;;;;;;5041165;28;20562;-69
2023/03/01 03:04:22;;;;;;;2.40;1.65;;;20.10;45.90;;;;;;5041053;28;20021;-69
2023/03/01 03:06:50;;;;;;;2.72;1.80;;;20.00;45.80;;;;;;5041234;28;20033;-69
2023/03/01 03:09:17;;;;;;;3.22;1.60;;;20.00;45.80;;;;;;5039982;28;20043;-69
2023/03/01 03:11:43;;;;;;;2.60;1.50;;;20.00;45.90;;;;;;5042251;28;20477;-69
2023/03/01 03:14:13;;;;;;;2.88;1.80;;;20.00;45.90;;;;;;5041866;28;20041;-69
2023/03/01 03:16:45;;;;;;;2.30;1.58;;;20.00;45.90;;;;;;5041422;28;20529;-68
2023/03/01 03:19:11;;;;;;;2.47;1.60;;;20.00;45.90;;;;;;5040732;28;20124;-68
2023/03/01 03:21:37;;;;;;;2.88;1.60;;;20.00;45.90;;;;;;5040134;28;20116;-68
2023/03/01 03:24:03;;;;;;;2.50;1.70;;;20.00;45.90;;;;;;5038930;28;20557;-68
2023/03/01 03:26:29;;;;;;;2.28;1.60;;;20.00;46.00;;;;;;5040627;28;20099;-68
2023/03/01 03:28:56;;;;;;;2.55;1.60;;;19.90;45.90;;;;;;5039480;28;20485;-68
2023/03/01 03:31:21;;;;;;;2.58;1.55;;;19.90;45.90;;;;;;5039309;28;20409;-68
2023/03/01 03:33:47;;;;;;;2.90;1.60;;;20.00;46.00;;;;;;5038219;28;20028;-68
2023/03/01 03:36:21;;;;;;;2.70;1.65;;;19.90;45.90;;;;;;5040566;28;20028;-68
2023/03/01 03:38:47;;;;;;;2.70;1.67;;;19.90;45.90;;;;;;5042222;28;20493;-68
2023/03/01 03:41:13;;;;;;;3.15;1.75;;;19.90;46.00;;;;;;5041181;28;20025;-68
2023/03/01 03:43:42;;;;;;;2.30;1.70;;;19.90;46.00;;;;;;5038471;28;20402;-68
2023/03/01 03:46:09;;;;;;;2.40;1.50;;;19.90;45.90;;;;;;5041014;28;20481;-68
2023/03/01 03:48:45;;;;;;;2.70;1.65;;;19.90;46.00;;;;;;5039172;28;20562;-68
2023/03/01 03:51:17;;;;;;;2.50;1.55;;;19.90;46.00;;;;;;5039705;28;20071;-68
2023/03/01 03:53:43;;;;;;;2.70;1.60;;;19.90;46.00;;;;;;5040140;28;20026;-68
2023/03/01 03:56:09;;;;;;;2.78;1.70;;;19.90;46.00;;;;;;5041198;28;20028;-68
2023/03/01 03:58:34;;;;;;;2.60;1.70;;;19.80;45.90;;;;;;5038274;28;20040;-68
2023/03/01 04:01:00;;;;;;;2.53;1.60;;;19.90;46.00;;;;;;5039399;28;20037;-68
2023/03/01 04:03:28;;;;;;;3.22;1.80;;;19.90;46.00;;;;;;5040732;28;20107;-68
2023/03/01 04:05:53;;;;;;;2.08;1.33;;;19.90;46.00;;;;;;5038814;28;20034;-68
2023/03/01 04:08:21;;;;;;;2.83;1.63;;;19.90;46.00;;;;;;5041807;28;20041;-68
2023/03/01 04:10:50;;;;;;;1.98;1.30;;;19.90;46.00;;;;;;5037524;28;20029;-68
2023/03/01 04:13:19;;;;;;;2.95;1.70;;;19.90;46.10;;;;;;5038617;28;20117;-68
2023/03/01 04:15:46;;;;;;;2.65;1.60;;;19.80;46.00;;;;;;5040791;28;20116;-68
2023/03/01 04:18:14;;;;;;;2.50;1.80;;;19.90;46.10;;;;;;5039916;28;20131;-68
2023/03/01 04:20:39;;;;;;;2.83;1.63;;;19.80;46.00;;;;;;5037988;28;20033;-68
2023/03/01 04:23:13;;;;;;;2.60;1.55;;;19.90;46.10;;;;;;5039999;28;20025;-68
2023/03/01 04:25:40;;;;;;;2.67;1.60;;;19.80;46.50;;;;;;5039873;28;20501;-68
2023/03/01 04:28:06;;;;;;;2.53;1.50;;;19.80;46.00;;;;;;5039059;28;20044;-68
2023/03/01 04:30:35;;;;;;;2.42;1.52;;;19.80;46.00;;;;;;5038959;28;20072;-68
2023/03/01 04:33:03;;;;;;;2.80;1.50;;;19.80;46.00;;;;;;5040579;28;20100;-68
2023/03/01 04:35:29;;;;;;;2.50;1.60;;;19.80;46.10;;;;;;5038882;28;20389;-67
2023/03/01 04:37:55;;;;;;;2.95;1.55;;;19.80;46.10;;;;;;5039419;28;20056;-68
2023/03/01 04:40:21;;;;;;;2.72;1.50;;;19.80;46.10;;;;;;5040696;28;20057;-69
2023/03/01 04:42:47;;;;;;;2.63;1.67;;;19.80;46.10;;;;;;5039995;28;20025;-69
2023/03/01 04:45:12;;;;;;;2.83;1.88;;;19.80;46.10;;;;;;5039351;28;20025;-69
2023/03/01 04:47:39;;;;;;;2.78;1.80;;;19.80;46.10;;;;;;5042925;28;20055;-69
2023/03/01 04:50:06;;;;;;;2.50;1.60;;;19.80;46.60;;;;;;5039922;28;20029;-69
2023/03/01 04:52:31;;;;;;;2.58;1.70;;;19.80;46.10;;;;;;5040290;28;20484;-69
2023/03/01 04:54:57;;;;;;;2.65;1.50;;;19.80;46.10;;;;;;5037470;28;20082;-69
2023/03/01 04:57:22;;;;;;;2.55;1.60;;;19.80;46.10;;;;;;5038198;28;20465;-69
2023/03/01 04:59:48;;;;;;;2.92;1.90;;;19.80;46.10;;;;;;5041963;28;20457;-69
2023/03/01 05:02:14;;;;;;;2.90;1.70;;;19.80;46.10;;;;;;5040323;28;20061;-69
2023/03/01 05:04:39;;;;;;;3.33;2.13;;;19.80;46.70;;;;;;5036193;28;20029;-69
2023/03/01 05:07:05;;;;;;;2.50;1.60;;;19.80;46.10;;;;;;5037756;28;20029;-69
2023/03/01 05:09:30;;;;;;;2.33;1.70;;;19.80;46.10;;;;;;5039217;28;20433;-69
2023/03/01 05:11:56;;;;;;;2.90;1.60;;;19.80;46.10;;;;;;5039864;28;20112;-69
2023/03/01 05:14:22;;;;;;;2.08;1.55;;;19.80;46.10;;;;;;5042695;28;20075;-68
2023/03/01 05:16:48;;;;;;;2.33;1.50;;;19.70;46.10;;;;;;5044672;28;20021;-68
2023/03/01 05:19:22;;;;;;;2.40;1.50;;;19.70;46.20;;;;;;5043666;28;20068;-69
2023/03/01 05:22:06;;;;;;;1.95;1.35;;;19.80;46.20;;;;;;5040704;28;20025;-68
2023/03/01 05:24:35;;;;;;;2.60;1.70;;;19.70;46.20;;;;;;5043443;28;20025;-69
2023/03/01 05:27:01;;;;;;;1.92;1.45;;;19.70;46.20;;;;;;5043729;28;20507;-69
2023/03/01 05:29:29;;;;;;;1.90;1.38;;;19.70;46.20;;;;;;5042632;28;20115;-68
2023/03/01 05:31:57;;;;;;;1.90;1.40;;;19.70;46.20;;;;;;5042355;28;20064;-68
2023/03/01 05:34:42;;;;;;;2.47;1.60;;;19.70;46.20;;;;;;5043307;28;20389;-67
2023/03/01 05:37:08;;;;;;;2.35;1.60;;;19.70;46.20;;;;;;5042469;28;20036;-68
2023/03/01 05:39:33;;;;;;;2.80;1.52;;;19.70;46.30;;;;;;5041649;28;20409;-68
2023/03/01 05:42:01;;;;;;;2.45;1.50;;;19.70;46.30;;;;;;5042620;28;20030;-68
2023/03/01 05:44:28;;;;;;;3.75;1.60;;;19.70;46.30;;;;;;5044093;28;20044;-68
2023/03/01 05:46:54;;;;;;;2.65;1.67;;;19.70;46.30;;;;;;5040457;28;20485;-68
2023/03/01 05:49:20;;;;;;;2.88;1.67;;;19.70;46.90;;;;;;5043658;28;20477;-68
2023/03/01 05:51:51;;;;;;;3.00;1.90;;;19.70;46.50;;;;;;5039212;28;20097;-68
2023/03/01 05:54:17;;;;;;;2.90;1.80;;;19.70;47.20;;;;;;5045272;28;20021;-68
2023/03/01 05:56:43;;;;;;;3.28;2.10;;;19.70;46.80;;;;;;5043117;28;20021;-68
2023/03/01 05:59:09;;;;;;;2.83;1.60;;;19.70;46.90;;;;;;5043043;28;20033;-68
2023/03/01 06:01:35;;;;;;;2.78;1.80;;;19.70;47.00;;;;;;5042031;28;20455;-68
2023/03/01 06:04:02;;;;;;;2.40;1.70;;;19.70;47.10;;;;;;5038194;28;20056;-68
2023/03/01 06:06:28;;;;;;;2.53;1.52;;;19.70;47.20;;;;;;5043741;28;20111;-68
2023/03/01 06:08:54;;;;;;;2.45;1.60;;;19.70;47.30;;;;;;5042632;28;20555;-68
2023/03/01 06:11:20;;;;;;;3.33;1.63;;;19.70;47.30;;;;;;5042869;28;20523;-67
2023/03/01 06:13:46;;;;;;;2.90;1.80;;;19.70;47.40;;;;;;5041699;28;20334;-67
2023/03/01 06:16:13;;;;;;;2.67;1.50;;;19.70;47.80;;;;;;5048756;28;20025;-67
2023/03/01 06:18:38;;;;;;;2.90;1.70;;;19.70;48.00;;;;;;5045786;28;20043;-67
2023/03/01 06:21:06;;;;;;;2.53;1.52;;;19.80;47.70;;;;;;5053139;28;20528;-67
2023/03/01 06:23:31;;;;;;;2.97;1.60;;;19.90;47.70;;;;;;5052521;28;20037;-67
2023/03/01 06:25:57;;;;;;;2.97;1.70;;;20.00;47.30;;;;;;5046903;28;20594;-67
2023/03/01 06:28:23;;;;;;;2.70;1.63;;;20.00;47.30;;;;;;5045081;28;20112;-67
2023/03/01 06:30:51;;;;;;;4.75;1.88;;;20.10;47.20;;;;;;5050866;28;20040;-67
2023/03/01 06:33:19;;;;;;;3.30;1.80;;;20.20;47.50;;;;;;5045113;28;20024;-67
2023/03/01 06:35:44;;;;;;;3.83;2.00;;;20.30;46.90;;;;;;5059153;28;20427;-67
2023/03/01 06:38:10;;;;;;;2.90;2.03;;;20.30;46.80;;;;;;5048958;28;20087;-67
2023/03/01 06:40:35;;;;;;;3.88;2.05;;;20.40;46.70;;;;;;5054655;28;20040;-67
2023/03/01 06:43:01;;;;;;;2.85;1.80;;;20.50;46.60;;;;;;5052301;28;20029;-67
2023/03/01 06:45:27;;;;;;;2.80;1.90;;;20.50;46.40;;;;;;5048868;28;20069;-67
2023/03/01 06:48:00;;;;;;;2.97;1.80;;;20.60;46.30;;;;;;5053467;28;20026;-67
2023/03/01 06:50:26;;;;;;;4.28;2.20;;;20.60;46.30;;;;;;5045235;28;20033;-67
2023/03/01 06:52:56;;;;;;;2.97;1.88;;;20.60;46.30;;;;;;5048059;28;20492;-67
2023/03/01 06:55:21;;;;;;;3.38;2.22;;;20.60;46.20;;;;;;5054531;28;20049;-67
2023/03/01 06:57:47;;;;;;;4.22;2.00;;;20.60;46.20;;;;;;5051165;28;20033;-67
2023/03/01 07:00:13;;;;;;;2.85;1.90;;;20.70;46.20;;;;;;5048638;28;20036;-67
2023/03/01 07:02:39;;;;;;;3.97;2.20;;;20.70;46.10;;;;;;5048911;28;20052;-67
2023/03/01 07:05:05;;;;;;;3.13;1.77;;;20.80;46.00;;;;;;5040783;28;20515;-68
2023/03/01 07:07:30;;;;;;;3.33;2.13;;;20.80;46.00;;;;;;5054238;28;20051;-68
2023/03/01 07:09:56;;;;;;;2.75;1.70;;;20.90;46.70;;;;;;5042565;28;20036;-67
2023/03/01 07:12:22;;;;;;;3.53;2.10;;;21.20;46.50;;;;;;5041643;28;20029;-68
2023/03/01 07:14:47;;;;;;;3.58;1.88;;;21.30;46.50;;;;;;5039067;28;20022;-68
2023/03/01 07:17:13;;;;;;;2.65;1.50;;;21.40;46.30;;;;;;5036936;28;20041;-68
2023/03/01 07:19:39;;;;;;;3.90;1.33;;;21.40;46.40;;;;;;5038207;28;20025;-65
2023/03/01 07:22:07;;;;;;;2.78;1.50;;;21.40;46.80;;;;;;5040467;28;20119;-65
2023/03/01 07:24:33;;;;;;;2.35;1.52;;;21.40;47.20;;;;;;5038039;28;20018;-66
2023/03/01 07:26:59;;;;;;;2.67;1.50;;;21.60;47.20;;;;;;5044205;28;20032;-66
2023/03/01 07:29:24;;;;;;;3.35;1.50;;;21.90;47.00;;;;;;5041072;28;20029;-65
2023/03/01 07:31:50;;;;;;;2.47;1.38;;;22.10;47.00;;;;;;5039976;28;20030;-65
2023/03/01 07:34:16;;;;;;;3.00;1.50;;;22.10;46.90;;;;;;5043772;28;20026;-66
2023/03/01 07:36:43;;;;;;;2.10;1.27;;;22.10;47.30;;;;;;5041321;28;20474;-65
2023/03/01 07:39:10;;;;;;;4.22;1.30;;;22.10;47.20;;;;;;5043804;28;20384;-65
2023/03/01 07:41:35;;;;;;;2.55;1.67;;;22.00;47.40;;;;;;5041647;28;20029;-66
2023/03/01 07:44:01;;;;;;;3.17;1.40;;;22.10;47.80;;;;;;5045224;28;20035;-66
2023/03/01 07:46:26;;;;;;;2.42;1.30;;;22.20;47.70;;;;;;5040414;28;20029;-66
2023/03/01 07:48:52;;;;;;;1.92;1.20;;;22.20;48.20;;;;;;5040594;28;20079;-65
2023/03/01 07:51:18;;;;;;;2.38;1.17;;;22.30;47.90;;;;;;5042831;28;20037;-66
2023/03/01 07:53:47;;;;;;;1.85;1.20;;;22.30;48.70;;;;;;5043643;28;20025;-65
2023/03/01 07:56:17;;;;;;;1.63;1.20;;;22.30;48.40;;;;;;5038907;28;20517;-66
2023/03/01 07:58:43;;;;;;;2.55;1.50;;;22.30;48.90;;;;;;5072004;28;20033;-66
2023/03/01 08:01:12;;;;;;;4.15;2.13;;;22.40;47.90;;;;;;5039097;28;20040;-65
2023/03/01 08:03:38;;;;;;;4.10;1.88;;;22.30;45.30;;;;;;5038595;28;20032;-67
2023/03/01 08:06:06;;;;;;;3.15;2.00;;;22.30;45.20;;;;;;5046651;28;20338;-67
2023/03/01 08:08:32;;;;;;;3.58;1.65;;;22.30;44.80;;;;;;5042182;28;20029;-66
2023/03/01 08:11:03;;;;;;;3.10;1.70;;;22.30;45.10;;;;;;5037498;28;20025;-67
2023/03/01 08:13:28;;;;;;;3.13;1.83;;;22.30;44.60;;;;;;5039503;28;20029;-66
2023/03/01 08:15:54;;;;;;;2.97;1.80;;;22.30;44.30;;;;;;5040144;28;20590;-67
2023/03/01 08:18:20;;;;;;;2.78;1.40;;;22.40;44.30;;;;;;5038346;28;20108;-66
2023/03/01 08:20:47;;;;;;;2.05;1.45;;;22.40;44.90;;;;;;5043510;28;20031;-67
2023/03/01 08:23:13;;;;;;;2.00;1.38;;;22.40;46.50;;;;;;5040563;28;20512;-67
2023/03/01 08:25:39;;;;;;;2.85;1.58;;;22.40;46.40;;;;;;5039652;28;20173;-67
2023/03/01 08:28:05;;;;;;;2.90;1.60;;;22.50;47.90;;;;;;5040250;28;20033;-67
2023/03/01 08:30:31;;;;;;;2.75;1.60;;;22.50;47.50;;;;;;5042112;28;20548;-66
2023/03/01 08:32:56;;;;;;;3.13;1.80;;;22.60;48.60;;;;;;5039642;28;20026;-67
2023/03/01 08:35:23;;;;;;;2.33;1.50;;;22.60;49.20;;;;;;5040561;28;20029;-67
2023/03/01 08:37:48;;;;;;;3.00;1.60;;;22.60;48.80;;;;;;5037537;28;20385;-67
2023/03/01 08:40:14;;;;;;;2.53;1.40;;;22.70;49.30;;;;;;5047267;28;20124;-67
2023/03/01 08:42:42;;;;;;;3.50;1.70;;;22.70;49.30;;;;;;5039987;28;20047;-67
2023/03/01 08:45:09;;;;;;;2.85;1.50;;;22.70;49.90;;;;;;5038755;28;20035;-67
2023/03/01 08:47:35;;;;;;;6.63;4.90;;;22.80;50.60;;;;;;5032263;28;20116;-66
2023/03/01 08:50:01;;;;;;;9.05;7.63;;;22.80;42.20;;;;;;5035079;28;20672;-67
2023/03/01 08:52:27;;;;;;;8.82;7.93;;;22.70;36.40;;;;;;5035873;28;20021;-66
2023/03/01 08:54:53;;;;;;;9.73;8.73;;;22.50;34.00;;;;;;5039734;28;20471;-67
2023/03/01 08:57:18;;;;;;;9.20;7.80;;;22.40;33.50;;;;;;5040956;28;20036;-67
2023/03/01 08:59:44;;;;;;;9.73;8.68;;;22.20;32.30;;;;;;5041238;28;20033;-67
2023/03/01 09:02:15;;;;;;;10.93;8.45;;;22.10;30.90;;;;;;5039791;28;20489;-67
2023/03/01 09:04:41;;;;;;;7.40;5.97;;;22.00;33.00;;;;;;5035842;28;20366;-67
2023/03/01 09:07:07;;;;;;;6.97;5.88;;;22.00;35.60;;;;;;5039485;28;20036;-67
2023/03/01 09:09:32;;;;;;;9.00;8.10;;;22.00;34.70;;;;;;5039062;28;20342;-67
2023/03/01 09:11:58;;;;;;;11.63;9.88;;;21.80;31.50;;;;;;5039821;28;20055;-66
2023/03/01 09:14:24;;;;;;;11.20;9.88;;;21.60;28.00;;;;;;5039894;28;20112;-67
2023/03/01 09:16:50;;;;;;;11.07;9.68;;;21.30;27.20;;;;;;5035675;28;20556;-67
2023/03/01 09:19:15;;;;;;;10.18;8.75;;;21.00;27.00;;;;;;5045777;28;20040;-67
2023/03/01 09:21:52;;;;;;;11.07;9.15;;;20.90;28.00;;;;;;5038531;28;20033;-68
2023/03/01 09:24:22;;;;;;;9.45;7.82;;;20.90;29.50;;;;;;5036806;28;20071;-68
2023/03/01 09:26:49;;;;;;;8.80;7.35;;;21.00;30.00;;;;;;5035183;28;20485;-68
2023/03/01 09:29:15;;;;;;;8.85;7.43;;;21.00;30.60;;;;;;5037638;28;20033;-67
2023/03/01 09:31:42;;;;;;;8.45;6.40;;;21.10;31.20;;;;;;5043788;28;20354;-67
2023/03/01 09:34:08;;;;;;;7.88;6.00;;;21.10;31.90;;;;;;5043112;28;20021;-67
2023/03/01 09:36:34;;;;;;;6.80;5.57;;;21.10;32.60;;;;;;5038868;28;20096;-67
2023/03/01 09:39:01;;;;;;;7.13;5.57;;;21.20;33.30;;;;;;5040461;28;20029;-68
2023/03/01 09:41:47;;;;;;;5.85;4.80;;;21.20;33.70;;;;;;5070607;28;20144;-68
2023/03/01 09:44:47;;;;;;;6.53;4.65;;;21.20;34.20;;;;;;5037546;28;20049;-68
2023/03/01 09:47:25;;;;;;;7.40;4.93;;;21.20;34.60;;;;;;5039212;28;20021;-67
2023/03/01 09:50:18;;;;;;;6.72;4.78;;;21.20;35.00;;;;;;5039698;28;20059;-67
2023/03/01 09:53:20;;;;;;;5.97;4.78;;;21.20;35.20;;;;;;5039889;28;20029;-67
2023/03/01 09:55:58;;;;;;;6.35;4.45;;;21.20;35.40;;;;;;5010477;28;20038;-66
2023/03/01 09:58:53;;;;;;;5.97;4.50;;;21.30;35.90;;;;;;5040727;28;20029;-67
2023/03/01 10:01:31;;;;;;;5.43;4.18;;;21.20;36.10;;;;;;5041896;28;20394;-68
2023/03/01 10:04:15;;;;;;;5.45;4.40;;;21.30;36.40;;;;;;5042604;28;20061;-67
2023/03/01 10:06:51;;;;;;;6.47;3.90;;;21.30;36.70;;;;;;5039868;28;20037;-67
2023/03/01 10:09:18;;;;;;;4.75;3.70;;;21.30;36.90;;;;;;5042277;28;20032;-67
2023/03/01 10:11:52;;;;;;;5.60;4.13;;;21.30;37.70;;;;;;5040011;28;20869;-67
2023/03/01 10:14:41;;;;;;;5.10;3.80;;;21.20;37.30;;;;;;5042877;28;20491;-67
2023/03/01 10:17:32;;;;;;;5.72;3.85;;;21.20;37.50;;;;;;5043175;28;20496;-67
2023/03/01 10:20:16;;;;;;;4.90;3.42;;;21.30;37.70;;;;;;5040379;28;20017;-67
2023/03/01 10:22:42;;;;;;;5.10;3.38;;;21.30;37.90;;;;;;5039684;28;20044;-68
2023/03/01 10:25:12;;;;;;;5.18;3.72;;;21.30;38.10;;;;;;5040839;28;20504;-67
2023/03/01 10:27:59;;;;;;;5.22;3.33;;;21.30;38.20;;;;;;5040149;28;20480;-68
2023/03/01 10:30:38;;;;;;;4.22;3.47;;;21.30;38.40;;;;;;5038641;28;20107;-67
2023/03/01 10:33:15;;;;;;;4.60;3.33;;;21.30;38.50;;;;;;5040426;28;20045;-67
2023/03/01 10:35:41;;;;;;;4.45;3.30;;;21.30;38.70;;;;;;5043667;28;20271;-66
2023/03/01 10:38:09;;;;;;;4.20;3.30;;;21.30;38.80;;;;;;5039131;28;20427;-67
2023/03/01 10:40:46;;;;;;;4.78;3.28;;;21.30;38.90;;;;;;5044426;28;20033;-67
2023/03/01 10:43:12;;;;;;;4.97;3.38;;;21.30;39.00;;;;;;5039906;28;20048;-67
2023/03/01 10:45:40;;;;;;;4.32;2.78;;;21.30;39.10;;;;;;5049563;28;20492;-67
2023/03/01 10:48:21;;;;;;;3.30;2.30;;;21.30;39.40;;;;;;5049714;28;20052;-67
2023/03/01 10:51:05;;;;;;;3.03;2.22;;;21.30;39.80;;;;;;5043013;28;20393;-67
2023/03/01 10:53:33;;;;;;;3.53;2.30;;;21.30;40.00;;;;;;5040565;28;20033;-67
2023/03/01 10:56:15;;;;;;;3.37;2.30;;;21.30;40.30;;;;;;5039915;28;20025;-67
2023/03/01 10:59:02;;;;;;;3.25;2.30;;;21.30;40.40;;;;;;5042086;28;20118;-67
2023/03/01 11:01:34;;;;;;;3.45;2.25;;;21.30;40.70;;;;;;5038181;28;20075;-67
2023/03/01 11:04:13;;;;;;;2.95;2.13;;;21.30;40.70;;;;;;5042339;28;20033;-68
2023/03/01 11:06:40;;;;;;;3.25;2.60;;;21.40;41.00;;;;;;5040115;28;20056;-67
2023/03/01 11:09:19;;;;;;;2.72;2.15;;;21.40;41.00;;;;;;5040362;28;20091;-67
2023/03/01 11:11:45;;;;;;;3.08;2.20;;;21.50;41.00;;;;;;5039925;28;20025;-67
2023/03/01 11:14:18;;;;;;;3.10;2.30;;;21.50;41.10;;;;;;5041768;28;20108;-66
2023/03/01 11:16:47;;;;;;;3.17;2.22;;;21.50;41.30;;;;;;5039351;28;20023;-67
2023/03/01 11:19:12;;;;;;;3.60;2.25;;;21.60;41.40;;;;;;5042442;28;20078;-67
2023/03/01 11:21:56;;;;;;;3.75;2.30;;;21.60;41.50;;;;;;5040701;28;20033;-66
2023/03/01 11:24:38;;;;;;;3.00;2.10;;;21.70;41.60;;;;;;5043362;28;20883;-66
2023/03/01 11:27:20;;;;;;;2.70;1.75;;;21.70;41.60;;;;;;5039864;28;20057;-66
2023/03/01 11:29:55;;;;;;;3.10;2.10;;;21.70;41.60;;;;;;5040681;28;20034;-69
2023/03/01 11:32:25;;;;;;;2.55;1.83;;;21.70;42.20;;;;;;5040220;28;20034;-68
2023/03/01 11:35:09;;;;;;;;;;;21.70;41.70;;;;;;5038383;28;20582;-68
2023/03/01 11:38:02;;;;;;;3.00;1.90;;;21.70;41.80;;;;;;5042483;28;20285;-67
2023/03/01 11:40:34;;;;;;;2.60;1.80;;;21.80;41.90;;;;;;5038406;28;20030;-68
2023/03/01 11:43:25;;;;;;;2.42;1.70;;;21.80;41.90;;;;;;5042529;28;20056;-69
2023/03/01 11:46:27;;;;;;;2.67;1.65;;;21.90;42.00;;;;;;5041832;28;20033;-66
2023/03/01 11:49:29;;;;;;;2.92;1.83;;;21.90;41.80;;;;;;5038414;28;20033;-66
2023/03/01 11:52:13;;;;;;;2.75;1.85;;;22.00;41.90;;;;;;5038138;28;20029;-66
2023/03/01 11:54:39;;;;;;;2.67;1.92;;;22.00;42.10;;;;;;5039305;28;20094;-66
2023/03/01 11:57:30;;;;;;;2.55;1.85;;;22.00;42.00;;;;;;5039197;28;20029;-66
2023/03/01 11:59:56;;;;;;;2.72;1.70;;;22.10;42.10;;;;;;5040412;28;20105;-66
2023/03/01 12:02:46;;;;;;;3.15;1.98;;;22.20;42.00;;;;;;5038540;28;20098;-66
2023/03/01 12:05:24;;;;;;;2.97;1.90;;;22.50;41.50;;;;;;5040933;28;20026;-66
2023/03/01 12:08:01;;;;;;;3.13;2.00;;;23.00;40.90;;;;;;5039283;28;20151;-66
2023/03/01 12:10:50;;;;;;;2.90;1.90;;;23.20;40.40;;;;;;5039271;28;20021;-66
2023/03/01 12:13:59;;;;;;;2.90;1.85;;;23.50;40.10;;;;;;5035994;28;20045;-67
2023/03/01 12:16:43;;;;;;;;;;;23.70;39.60;;;;;;5037419;28;20029;-68
2023/03/01 12:19:24;;;;;;;3.13;2.17;;;23.70;39.50;;;;;;5042204;28;19908;-66
2023/03/01 12:22:02;;;;;;;2.60;1.80;;;23.90;39.70;;;;;;5035706;28;20456;-66
2023/03/01 12:24:55;;;;;;;3.00;2.00;;;24.10;39.50;;;;;;5038783;28;20029;-67
2023/03/01 12:27:48;;;;;;;3.50;2.45;;;24.30;39.20;;;;;;5040569;28;20037;-66
2023/03/01 12:30:23;;;;;;;3.85;2.60;;;24.30;38.00;;;;;;5034856;28;20037;-66
2023/03/01 12:33:21;;;;;;;4.13;2.70;;;24.10;37.90;;;;;;5036871;28;20035;-67
2023/03/01 12:35:55;;;;;;;3.60;2.60;;;23.90;37.90;;;;;;5041409;28;20031;-67
2023/03/01 12:38:37;;;;;;;3.80;2.60;;;23.80;38.30;;;;;;5038403;28;20052;-67
2023/03/01 12:41:18;;;;;;;4.07;2.35;;;23.70;38.20;;;;;;5039076;28;20045;-68
2023/03/01 12:44:08;;;;;;;3.97;2.40;;;23.60;38.50;;;;;;5037968;28;20035;-67
2023/03/01 12:47:04;;;;;;;3.92;2.50;;;23.60;38.50;;;;;;5045938;28;20025;-67
2023/03/01 12:49:49;;;;;;;3.63;2.40;;;23.50;38.70;;;;;;5046742;28;20025;-68
2023/03/01 12:52:30;;;;;;;4.85;2.55;;;23.50;38.90;;;;;;5050290;28;20036;-69
2023/03/01 12:55:01;;;;;;;4.32;2.55;;;23.40;38.90;;;;;;5051298;28;20076;-70
2023/03/01 12:57:38;;;;;;;4.28;2.47;;;23.40;39.00;;;;;;5050709;28;20082;-67
2023/03/01 13:00:31;;;;;;;3.17;2.30;;;23.40;39.20;;;;;;5045475;28;20045;-67
2023/03/01 13:03:09;;;;;;;3.88;2.42;;;23.40;39.20;;;;;;5052163;28;20084;-68
2023/03/01 13:05:48;;;;;;;3.33;2.40;;;23.40;39.30;;;;;;5051814;28;20052;-68
2023/03/01 13:08:22;;;;;;;5.13;2.60;;;23.40;39.10;;;;;;5048497;28;20037;-68
2023/03/01 13:11:05;;;;;;;3.33;2.30;;;23.40;39.10;;;;;;5048811;28;20022;-68